sensor_id;sensor_type;location;lat;lon;timestamp;P1;durP1;ratioP1;P2;durP2;ratioP2
68284;SDS011;55114;52.052;5.238;2023-05-10T00:01:17;47.47;;;16.20;;
68284;SDS011;55114;52.052;5.238;2023-05-10T00:03:45;48.97;;;15.73;;
68284;SDS011;55114;52.052;5.238;2023-05-10T00:06:12;52.10;;;17.73;;
68284;SDS011;55114;52.052;5.238;2023-05-10T00:08:39;47.33;;;17.17;;
68284;SDS011;55114;52.052;5.238;2023-05-10T00:11:06;49.20;;;16.30;;
68284;SDS011;55114;52.052;5.238;2023-05-10T00:13:34;47.63;;;16.98;;
68284;SDS011;55114;52.052;5.238;2023-05-10T00:16:01;45.27;;;16.33;;
68284;SDS011;55114;52.052;5.238;2023-05-10T00:18:28;45.10;;;16.17;;
68284;SDS011;55114;52.052;5.238;2023-05-10T00:20:55;48.13;;;17.30;;
68284;SDS011;55114;52.052;5.238;2023-05-10T00:23:23;47.00;;;16.45;;
68284;SDS011;55114;52.052;5.238;2023-05-10T00:25:50;49.70;;;17.80;;
68284;SDS011;55114;52.052;5.238;2023-05-10T00:28:17;48.10;;;17.13;;
68284;SDS011;55114;52.052;5.238;2023-05-10T00:30:45;45.38;;;16.77;;
68284;SDS011;55114;52.052;5.238;2023-05-10T00:33:12;49.17;;;16.92;;
68284;SDS011;55114;52.052;5.238;2023-05-10T00:35:39;47.70;;;16.27;;
68284;SDS011;55114;52.052;5.238;2023-05-10T00:38:07;62.08;;;17.90;;
68284;SDS011;55114;52.052;5.238;2023-05-10T00:40:35;57.53;;;17.27;;
68284;SDS011;55114;52.052;5.238;2023-05-10T00:43:05;58.20;;;17.08;;
68284;SDS011;55114;52.052;5.238;2023-05-10T00:45:33;52.78;;;16.65;;
68284;SDS011;55114;52.052;5.238;2023-05-10T00:48:02;56.55;;;16.35;;
68284;SDS011;55114;52.052;5.238;2023-05-10T00:50:30;57.53;;;16.70;;
68284;SDS011;55114;52.052;5.238;2023-05-10T00:53:01;54.57;;;16.47;;
68284;SDS011;55114;52.052;5.238;2023-05-10T00:55:29;53.65;;;16.60;;
68284;SDS011;55114;52.052;5.238;2023-05-10T00:57:58;53.80;;;16.63;;
68284;SDS011;55114;52.052;5.238;2023-05-10T01:00:25;50.22;;;15.32;;
68284;SDS011;55114;52.052;5.238;2023-05-10T01:02:55;53.83;;;16.20;;
68284;SDS011;55114;52.052;5.238;2023-05-10T01:05:23;46.67;;;16.10;;
68284;SDS011;55114;52.052;5.238;2023-05-10T01:07:52;52.05;;;16.63;;
68284;SDS011;55114;52.052;5.238;2023-05-10T01:10:19;46.35;;;14.65;;
68284;SDS011;55114;52.052;5.238;2023-05-10T01:12:47;53.63;;;16.17;;
68284;SDS011;55114;52.052;5.238;2023-05-10T01:15:16;48.78;;;15.48;;
68284;SDS011;55114;52.052;5.238;2023-05-10T01:17:45;54.83;;;16.60;;
68284;SDS011;55114;52.052;5.238;2023-05-10T01:20:14;55.72;;;16.50;;
68284;SDS011;55114;52.052;5.238;2023-05-10T01:30:46;59.30;;;16.10;;
68284;SDS011;55114;52.052;5.238;2023-05-10T01:35:52;55.42;;;16.23;;
68284;SDS011;55114;52.052;5.238;2023-05-10T01:40:58;58.45;;;16.70;;
68284;SDS011;55114;52.052;5.238;2023-05-10T01:43:29;65.90;;;17.23;;
68284;SDS011;55114;52.052;5.238;2023-05-10T01:45:59;59.42;;;17.13;;
68284;SDS011;55114;52.052;5.238;2023-05-10T01:48:30;65.35;;;19.13;;
68284;SDS011;55114;52.052;5.238;2023-05-10T01:50:58;67.35;;;19.05;;
68284;SDS011;55114;52.052;5.238;2023-05-10T01:53:25;69.28;;;18.05;;
68284;SDS011;55114;52.052;5.238;2023-05-10T01:55:53;69.60;;;18.70;;
68284;SDS011;55114;52.052;5.238;2023-05-10T01:58:27;65.63;;;18.55;;
68284;SDS011;55114;52.052;5.238;2023-05-10T02:00:55;70.75;;;20.20;;
68284;SDS011;55114;52.052;5.238;2023-05-10T02:03:23;75.88;;;19.45;;
68284;SDS011;55114;52.052;5.238;2023-05-10T02:05:50;80.13;;;20.30;;
68284;SDS011;55114;52.052;5.238;2023-05-10T02:08:18;81.00;;;20.27;;
68284;SDS011;55114;52.052;5.238;2023-05-10T02:10:48;78.75;;;19.45;;
68284;SDS011;55114;52.052;5.238;2023-05-10T02:13:16;70.80;;;19.15;;
68284;SDS011;55114;52.052;5.238;2023-05-10T02:15:43;82.63;;;21.10;;
68284;SDS011;55114;52.052;5.238;2023-05-10T02:18:13;79.25;;;21.42;;
68284;SDS011;55114;52.052;5.238;2023-05-10T02:20:41;86.63;;;20.43;;
68284;SDS011;55114;52.052;5.238;2023-05-10T02:23:09;91.50;;;21.95;;
68284;SDS011;55114;52.052;5.238;2023-05-10T02:25:37;87.80;;;21.92;;
68284;SDS011;55114;52.052;5.238;2023-05-10T02:28:05;86.13;;;21.20;;
68284;SDS011;55114;52.052;5.238;2023-05-10T02:30:33;86.85;;;21.10;;
68284;SDS011;55114;52.052;5.238;2023-05-10T02:33:01;77.93;;;20.87;;
68284;SDS011;55114;52.052;5.238;2023-05-10T02:35:30;83.18;;;21.02;;
68284;SDS011;55114;52.052;5.238;2023-05-10T02:37:59;88.28;;;20.90;;
68284;SDS011;55114;52.052;5.238;2023-05-10T02:40:26;96.00;;;21.05;;
68284;SDS011;55114;52.052;5.238;2023-05-10T02:42:54;89.13;;;19.67;;
68284;SDS011;55114;52.052;5.238;2023-05-10T02:45:23;83.77;;;20.17;;
68284;SDS011;55114;52.052;5.238;2023-05-10T02:47:52;87.68;;;21.05;;
68284;SDS011;55114;52.052;5.238;2023-05-10T02:50:19;84.20;;;21.40;;
68284;SDS011;55114;52.052;5.238;2023-05-10T02:52:47;77.07;;;21.33;;
68284;SDS011;55114;52.052;5.238;2023-05-10T02:55:19;88.72;;;21.50;;
68284;SDS011;55114;52.052;5.238;2023-05-10T02:57:48;71.50;;;20.40;;
68284;SDS011;55114;52.052;5.238;2023-05-10T03:00:17;72.55;;;20.55;;
68284;SDS011;55114;52.052;5.238;2023-05-10T03:02:45;74.20;;;20.63;;
68284;SDS011;55114;52.052;5.238;2023-05-10T03:05:12;76.88;;;20.25;;
68284;SDS011;55114;52.052;5.238;2023-05-10T03:07:39;71.30;;;20.10;;
68284;SDS011;55114;52.052;5.238;2023-05-10T03:10:07;74.57;;;19.20;;
68284;SDS011;55114;52.052;5.238;2023-05-10T03:12:52;70.10;;;18.63;;
68284;SDS011;55114;52.052;5.238;2023-05-10T03:18:13;70.00;;;18.98;;
68284;SDS011;55114;52.052;5.238;2023-05-10T03:20:42;72.35;;;19.27;;
68284;SDS011;55114;52.052;5.238;2023-05-10T03:23:18;73.50;;;18.70;;
68284;SDS011;55114;52.052;5.238;2023-05-10T03:25:48;75.53;;;18.10;;
68284;SDS011;55114;52.052;5.238;2023-05-10T03:28:16;70.00;;;17.90;;
68284;SDS011;55114;52.052;5.238;2023-05-10T03:30:44;66.70;;;18.55;;
68284;SDS011;55114;52.052;5.238;2023-05-10T03:33:12;69.82;;;18.13;;
68284;SDS011;55114;52.052;5.238;2023-05-10T03:35:39;72.03;;;17.07;;
68284;SDS011;55114;52.052;5.238;2023-05-10T03:38:07;71.55;;;18.00;;
68284;SDS011;55114;52.052;5.238;2023-05-10T03:40:34;69.38;;;19.20;;
68284;SDS011;55114;52.052;5.238;2023-05-10T03:43:01;69.60;;;18.00;;
68284;SDS011;55114;52.052;5.238;2023-05-10T03:45:29;76.82;;;18.05;;
68284;SDS011;55114;52.052;5.238;2023-05-10T03:48:00;65.77;;;17.83;;
68284;SDS011;55114;52.052;5.238;2023-05-10T03:50:28;72.57;;;18.45;;
68284;SDS011;55114;52.052;5.238;2023-05-10T03:52:55;72.40;;;18.75;;
68284;SDS011;55114;52.052;5.238;2023-05-10T03:55:26;73.35;;;18.50;;
68284;SDS011;55114;52.052;5.238;2023-05-10T03:57:53;74.32;;;17.70;;
68284;SDS011;55114;52.052;5.238;2023-05-10T04:00:21;72.63;;;18.30;;
68284;SDS011;55114;52.052;5.238;2023-05-10T04:02:49;69.30;;;17.67;;
68284;SDS011;55114;52.052;5.238;2023-05-10T04:05:16;74.28;;;18.75;;
68284;SDS011;55114;52.052;5.238;2023-05-10T04:07:44;87.43;;;18.63;;
68284;SDS011;55114;52.052;5.238;2023-05-10T04:10:11;81.05;;;18.92;;
68284;SDS011;55114;52.052;5.238;2023-05-10T04:12:39;83.60;;;19.70;;
68284;SDS011;55114;52.052;5.238;2023-05-10T04:15:07;94.43;;;19.67;;
68284;SDS011;55114;52.052;5.238;2023-05-10T04:17:35;87.63;;;20.25;;
68284;SDS011;55114;52.052;5.238;2023-05-10T04:20:05;77.90;;;18.75;;
68284;SDS011;55114;52.052;5.238;2023-05-10T04:22:35;90.10;;;20.48;;
68284;SDS011;55114;52.052;5.238;2023-05-10T04:25:05;95.83;;;21.60;;
68284;SDS011;55114;52.052;5.238;2023-05-10T04:27:33;93.38;;;21.35;;
68284;SDS011;55114;52.052;5.238;2023-05-10T04:30:10;93.20;;;21.27;;
68284;SDS011;55114;52.052;5.238;2023-05-10T04:32:38;95.28;;;22.17;;
68284;SDS011;55114;52.052;5.238;2023-05-10T04:35:05;100.28;;;22.23;;
68284;SDS011;55114;52.052;5.238;2023-05-10T04:37:33;93.67;;;22.33;;
68284;SDS011;55114;52.052;5.238;2023-05-10T04:40:01;88.10;;;21.73;;
68284;SDS011;55114;52.052;5.238;2023-05-10T04:42:29;94.30;;;22.90;;
68284;SDS011;55114;52.052;5.238;2023-05-10T04:44:58;95.15;;;23.60;;
68284;SDS011;55114;52.052;5.238;2023-05-10T04:47:26;93.00;;;23.73;;
68284;SDS011;55114;52.052;5.238;2023-05-10T04:49:53;85.87;;;23.07;;
68284;SDS011;55114;52.052;5.238;2023-05-10T04:52:21;81.28;;;24.38;;
68284;SDS011;55114;52.052;5.238;2023-05-10T04:54:49;93.25;;;24.20;;
68284;SDS011;55114;52.052;5.238;2023-05-10T04:57:17;91.43;;;25.38;;
68284;SDS011;55114;52.052;5.238;2023-05-10T04:59:44;87.82;;;25.35;;
68284;SDS011;55114;52.052;5.238;2023-05-10T05:02:14;100.20;;;27.97;;
68284;SDS011;55114;52.052;5.238;2023-05-10T05:04:41;98.85;;;27.13;;
68284;SDS011;55114;52.052;5.238;2023-05-10T05:07:08;89.10;;;27.52;;
68284;SDS011;55114;52.052;5.238;2023-05-10T05:09:36;93.38;;;25.70;;
68284;SDS011;55114;52.052;5.238;2023-05-10T05:12:03;101.63;;;26.25;;
68284;SDS011;55114;52.052;5.238;2023-05-10T05:14:30;98.57;;;26.17;;
68284;SDS011;55114;52.052;5.238;2023-05-10T05:16:58;102.80;;;27.70;;
68284;SDS011;55114;52.052;5.238;2023-05-10T05:19:25;86.20;;;25.75;;
68284;SDS011;55114;52.052;5.238;2023-05-10T05:21:52;83.25;;;25.05;;
68284;SDS011;55114;52.052;5.238;2023-05-10T05:24:19;90.00;;;25.30;;
68284;SDS011;55114;52.052;5.238;2023-05-10T05:26:46;78.57;;;23.67;;
68284;SDS011;55114;52.052;5.238;2023-05-10T05:29:14;97.80;;;25.50;;
68284;SDS011;55114;52.052;5.238;2023-05-10T05:31:41;76.82;;;22.67;;
68284;SDS011;55114;52.052;5.238;2023-05-10T05:34:09;85.60;;;23.90;;
68284;SDS011;55114;52.052;5.238;2023-05-10T05:36:36;69.60;;;22.90;;
68284;SDS011;55114;52.052;5.238;2023-05-10T05:39:07;72.17;;;21.43;;
68284;SDS011;55114;52.052;5.238;2023-05-10T05:41:34;73.88;;;22.70;;
68284;SDS011;55114;52.052;5.238;2023-05-10T05:44:01;78.22;;;23.08;;
68284;SDS011;55114;52.052;5.238;2023-05-10T05:46:28;75.43;;;22.08;;
68284;SDS011;55114;52.052;5.238;2023-05-10T05:48:55;79.95;;;23.88;;
68284;SDS011;55114;52.052;5.238;2023-05-10T05:51:23;73.90;;;21.43;;
68284;SDS011;55114;52.052;5.238;2023-05-10T05:53:50;73.57;;;20.77;;
68284;SDS011;55114;52.052;5.238;2023-05-10T05:56:17;59.85;;;18.08;;
68284;SDS011;55114;52.052;5.238;2023-05-10T05:58:50;62.22;;;19.55;;
68284;SDS011;55114;52.052;5.238;2023-05-10T06:01:17;63.53;;;19.25;;
68284;SDS011;55114;52.052;5.238;2023-05-10T06:03:45;61.47;;;19.47;;
68284;SDS011;55114;52.052;5.238;2023-05-10T06:06:13;69.20;;;20.02;;
68284;SDS011;55114;52.052;5.238;2023-05-10T06:08:40;73.35;;;21.50;;
68284;SDS011;55114;52.052;5.238;2023-05-10T06:11:07;63.55;;;19.52;;
68284;SDS011;55114;52.052;5.238;2023-05-10T06:13:34;60.05;;;19.20;;
68284;SDS011;55114;52.052;5.238;2023-05-10T06:16:02;61.90;;;19.23;;
68284;SDS011;55114;52.052;5.238;2023-05-10T06:18:29;61.00;;;19.58;;
68284;SDS011;55114;52.052;5.238;2023-05-10T06:20:57;56.80;;;17.88;;
68284;SDS011;55114;52.052;5.238;2023-05-10T06:23:24;57.70;;;18.20;;
68284;SDS011;55114;52.052;5.238;2023-05-10T06:25:51;52.28;;;17.35;;
68284;SDS011;55114;52.052;5.238;2023-05-10T06:28:19;53.93;;;16.67;;
68284;SDS011;55114;52.052;5.238;2023-05-10T06:30:46;52.25;;;16.10;;
68284;SDS011;55114;52.052;5.238;2023-05-10T06:33:13;47.88;;;15.23;;
68284;SDS011;55114;52.052;5.238;2023-05-10T06:35:42;50.60;;;15.85;;
68284;SDS011;55114;52.052;5.238;2023-05-10T06:38:09;42.92;;;14.65;;
68284;SDS011;55114;52.052;5.238;2023-05-10T06:40:41;36.83;;;11.90;;
68284;SDS011;55114;52.052;5.238;2023-05-10T06:43:09;27.17;;;10.73;;
68284;SDS011;55114;52.052;5.238;2023-05-10T06:45:36;28.63;;;10.07;;
68284;SDS011;55114;52.052;5.238;2023-05-10T06:48:03;28.05;;;10.32;;
68284;SDS011;55114;52.052;5.238;2023-05-10T06:50:31;26.30;;;9.23;;
68284;SDS011;55114;52.052;5.238;2023-05-10T06:52:58;22.87;;;8.40;;
68284;SDS011;55114;52.052;5.238;2023-05-10T06:55:25;25.60;;;8.57;;
68284;SDS011;55114;52.052;5.238;2023-05-10T06:57:53;22.75;;;8.45;;
68284;SDS011;55114;52.052;5.238;2023-05-10T07:00:20;20.48;;;8.23;;
68284;SDS011;55114;52.052;5.238;2023-05-10T07:02:47;18.92;;;7.25;;
68284;SDS011;55114;52.052;5.238;2023-05-10T07:05:15;18.43;;;6.90;;
68284;SDS011;55114;52.052;5.238;2023-05-10T07:07:42;20.60;;;8.10;;
68284;SDS011;55114;52.052;5.238;2023-05-10T07:10:10;15.02;;;6.40;;
68284;SDS011;55114;52.052;5.238;2023-05-10T07:12:37;16.23;;;6.63;;
68284;SDS011;55114;52.052;5.238;2023-05-10T07:15:05;16.55;;;6.72;;
68284;SDS011;55114;52.052;5.238;2023-05-10T07:17:32;14.33;;;5.90;;
68284;SDS011;55114;52.052;5.238;2023-05-10T07:19:59;14.05;;;5.78;;
68284;SDS011;55114;52.052;5.238;2023-05-10T07:22:27;14.30;;;6.00;;
68284;SDS011;55114;52.052;5.238;2023-05-10T07:24:54;10.65;;;5.00;;
68284;SDS011;55114;52.052;5.238;2023-05-10T07:27:21;10.63;;;5.18;;
68284;SDS011;55114;52.052;5.238;2023-05-10T07:29:49;11.00;;;4.40;;
68284;SDS011;55114;52.052;5.238;2023-05-10T07:32:17;10.63;;;4.63;;
68284;SDS011;55114;52.052;5.238;2023-05-10T07:35:01;14.43;;;6.50;;
68284;SDS011;55114;52.052;5.238;2023-05-10T07:37:45;15.10;;;6.13;;
68284;SDS011;55114;52.052;5.238;2023-05-10T07:40:12;12.00;;;5.85;;
68284;SDS011;55114;52.052;5.238;2023-05-10T07:42:39;14.50;;;5.77;;
68284;SDS011;55114;52.052;5.238;2023-05-10T07:45:06;15.82;;;6.10;;
68284;SDS011;55114;52.052;5.238;2023-05-10T07:47:33;14.60;;;6.68;;
68284;SDS011;55114;52.052;5.238;2023-05-10T07:50:01;15.85;;;6.25;;
68284;SDS011;55114;52.052;5.238;2023-05-10T07:52:28;12.38;;;5.53;;
68284;SDS011;55114;52.052;5.238;2023-05-10T07:54:55;17.97;;;6.60;;
68284;SDS011;55114;52.052;5.238;2023-05-10T07:57:23;15.65;;;6.20;;
68284;SDS011;55114;52.052;5.238;2023-05-10T07:59:50;13.65;;;5.88;;
68284;SDS011;55114;52.052;5.238;2023-05-10T08:02:17;16.23;;;6.15;;
68284;SDS011;55114;52.052;5.238;2023-05-10T08:04:50;14.65;;;6.13;;
68284;SDS011;55114;52.052;5.238;2023-05-10T08:07:20;15.50;;;5.63;;
68284;SDS011;55114;52.052;5.238;2023-05-10T08:09:48;11.95;;;5.28;;
68284;SDS011;55114;52.052;5.238;2023-05-10T08:12:15;15.40;;;5.80;;
68284;SDS011;55114;52.052;5.238;2023-05-10T08:14:45;12.85;;;5.72;;
68284;SDS011;55114;52.052;5.238;2023-05-10T08:17:12;14.68;;;5.85;;
68284;SDS011;55114;52.052;5.238;2023-05-10T08:19:40;14.20;;;5.70;;
68284;SDS011;55114;52.052;5.238;2023-05-10T08:22:07;16.77;;;7.20;;
68284;SDS011;55114;52.052;5.238;2023-05-10T08:24:34;15.10;;;6.32;;
68284;SDS011;55114;52.052;5.238;2023-05-10T08:27:04;13.00;;;5.20;;
68284;SDS011;55114;52.052;5.238;2023-05-10T08:29:32;10.48;;;5.07;;
68284;SDS011;55114;52.052;5.238;2023-05-10T08:32:15;13.43;;;5.30;;
68284;SDS011;55114;52.052;5.238;2023-05-10T08:34:42;12.88;;;4.90;;
68284;SDS011;55114;52.052;5.238;2023-05-10T08:37:09;13.15;;;5.57;;
68284;SDS011;55114;52.052;5.238;2023-05-10T08:39:39;12.40;;;5.55;;
68284;SDS011;55114;52.052;5.238;2023-05-10T08:42:11;12.90;;;5.35;;
68284;SDS011;55114;52.052;5.238;2023-05-10T08:44:42;12.00;;;5.40;;
68284;SDS011;55114;52.052;5.238;2023-05-10T08:47:09;12.13;;;5.35;;
68284;SDS011;55114;52.052;5.238;2023-05-10T08:49:37;14.13;;;6.13;;
68284;SDS011;55114;52.052;5.238;2023-05-10T08:52:04;11.13;;;5.15;;
68284;SDS011;55114;52.052;5.238;2023-05-10T08:54:33;12.95;;;5.70;;
68284;SDS011;55114;52.052;5.238;2023-05-10T08:57:01;13.30;;;5.90;;
68284;SDS011;55114;52.052;5.238;2023-05-10T08:59:29;11.75;;;5.35;;
68284;SDS011;55114;52.052;5.238;2023-05-10T09:01:57;13.55;;;5.85;;
68284;SDS011;55114;52.052;5.238;2023-05-10T09:04:25;13.10;;;5.60;;
68284;SDS011;55114;52.052;5.238;2023-05-10T09:06:52;11.70;;;5.40;;
68284;SDS011;55114;52.052;5.238;2023-05-10T09:09:19;14.00;;;5.43;;
68284;SDS011;55114;52.052;5.238;2023-05-10T09:11:47;13.45;;;5.72;;
68284;SDS011;55114;52.052;5.238;2023-05-10T09:14:14;12.82;;;5.78;;
68284;SDS011;55114;52.052;5.238;2023-05-10T09:16:42;14.88;;;6.07;;
68284;SDS011;55114;52.052;5.238;2023-05-10T09:19:09;13.77;;;6.65;;
68284;SDS011;55114;52.052;5.238;2023-05-10T09:21:37;14.37;;;5.87;;
68284;SDS011;55114;52.052;5.238;2023-05-10T09:24:05;12.98;;;5.93;;
68284;SDS011;55114;52.052;5.238;2023-05-10T09:26:32;12.38;;;5.43;;
68284;SDS011;55114;52.052;5.238;2023-05-10T09:29:02;11.68;;;5.20;;
68284;SDS011;55114;52.052;5.238;2023-05-10T09:34:20;11.47;;;5.40;;
68284;SDS011;55114;52.052;5.238;2023-05-10T09:36:55;10.98;;;4.55;;
68284;SDS011;55114;52.052;5.238;2023-05-10T09:39:35;10.75;;;4.95;;
68284;SDS011;55114;52.052;5.238;2023-05-10T09:42:04;8.60;;;4.57;;
68284;SDS011;55114;52.052;5.238;2023-05-10T09:44:32;8.85;;;4.57;;
68284;SDS011;55114;52.052;5.238;2023-05-10T09:47:00;9.33;;;3.70;;
68284;SDS011;55114;52.052;5.238;2023-05-10T09:49:27;7.90;;;4.10;;
68284;SDS011;55114;52.052;5.238;2023-05-10T09:52:04;6.55;;;3.20;;
68284;SDS011;55114;52.052;5.238;2023-05-10T09:54:32;7.90;;;3.90;;
68284;SDS011;55114;52.052;5.238;2023-05-10T09:56:59;7.25;;;3.55;;
68284;SDS011;55114;52.052;5.238;2023-05-10T09:59:27;8.20;;;3.20;;
68284;SDS011;55114;52.052;5.238;2023-05-10T10:01:58;9.52;;;4.13;;
68284;SDS011;55114;52.052;5.238;2023-05-10T10:04:26;8.77;;;3.90;;
68284;SDS011;55114;52.052;5.238;2023-05-10T10:06:58;8.55;;;3.80;;
68284;SDS011;55114;52.052;5.238;2023-05-10T10:09:26;8.10;;;3.80;;
68284;SDS011;55114;52.052;5.238;2023-05-10T10:11:53;7.77;;;3.53;;
68284;SDS011;55114;52.052;5.238;2023-05-10T10:14:21;6.93;;;3.30;;
68284;SDS011;55114;52.052;5.238;2023-05-10T10:16:50;6.63;;;3.35;;
68284;SDS011;55114;52.052;5.238;2023-05-10T10:19:33;8.52;;;3.33;;
68284;SDS011;55114;52.052;5.238;2023-05-10T10:22:02;7.65;;;3.90;;
68284;SDS011;55114;52.052;5.238;2023-05-10T10:24:29;8.60;;;3.80;;
68284;SDS011;55114;52.052;5.238;2023-05-10T10:26:57;7.70;;;3.65;;
68284;SDS011;55114;52.052;5.238;2023-05-10T10:29:33;9.88;;;3.50;;
68284;SDS011;55114;52.052;5.238;2023-05-10T10:32:07;8.80;;;4.07;;
68284;SDS011;55114;52.052;5.238;2023-05-10T10:34:36;8.77;;;4.05;;
68284;SDS011;55114;52.052;5.238;2023-05-10T10:37:06;9.93;;;3.77;;
68284;SDS011;55114;52.052;5.238;2023-05-10T10:39:33;8.68;;;3.55;;
68284;SDS011;55114;52.052;5.238;2023-05-10T10:42:03;8.95;;;3.90;;
68284;SDS011;55114;52.052;5.238;2023-05-10T10:49:32;7.87;;;3.77;;
68284;SDS011;55114;52.052;5.238;2023-05-10T10:52:20;8.52;;;4.00;;
68284;SDS011;55114;52.052;5.238;2023-05-10T10:55:13;10.63;;;4.22;;
68284;SDS011;55114;52.052;5.238;2023-05-10T11:05:58;10.00;;;3.65;;
68284;SDS011;55114;52.052;5.238;2023-05-10T11:08:10;8.27;;;3.90;;
68284;SDS011;55114;52.052;5.238;2023-05-10T11:10:38;7.32;;;3.60;;
68284;SDS011;55114;52.052;5.238;2023-05-10T11:13:07;7.63;;;3.88;;
68284;SDS011;55114;52.052;5.238;2023-05-10T11:15:35;7.80;;;3.87;;
68284;SDS011;55114;52.052;5.238;2023-05-10T11:18:19;6.65;;;3.80;;
68284;SDS011;55114;52.052;5.238;2023-05-10T11:23:23;6.10;;;3.00;;
68284;SDS011;55114;52.052;5.238;2023-05-10T11:25:50;7.75;;;3.58;;
68284;SDS011;55114;52.052;5.238;2023-05-10T11:28:18;10.70;;;4.90;;
68284;SDS011;55114;52.052;5.238;2023-05-10T11:30:46;8.52;;;4.28;;
68284;SDS011;55114;52.052;5.238;2023-05-10T11:33:17;8.45;;;3.60;;
68284;SDS011;55114;52.052;5.238;2023-05-10T11:35:45;6.10;;;3.20;;
68284;SDS011;55114;52.052;5.238;2023-05-10T11:38:13;10.63;;;3.70;;
68284;SDS011;55114;52.052;5.238;2023-05-10T11:40:40;6.37;;;3.50;;
68284;SDS011;55114;52.052;5.238;2023-05-10T11:43:08;6.45;;;3.55;;
68284;SDS011;55114;52.052;5.238;2023-05-10T11:45:37;8.35;;;3.65;;
68284;SDS011;55114;52.052;5.238;2023-05-10T11:48:04;7.65;;;3.60;;
68284;SDS011;55114;52.052;5.238;2023-05-10T11:50:31;8.40;;;3.65;;
68284;SDS011;55114;52.052;5.238;2023-05-10T11:52:59;6.30;;;3.13;;
68284;SDS011;55114;52.052;5.238;2023-05-10T11:55:26;7.63;;;3.42;;
68284;SDS011;55114;52.052;5.238;2023-05-10T11:57:53;7.57;;;3.70;;
68284;SDS011;55114;52.052;5.238;2023-05-10T12:00:21;7.20;;;3.78;;
68284;SDS011;55114;52.052;5.238;2023-05-10T12:02:48;7.05;;;3.70;;
68284;SDS011;55114;52.052;5.238;2023-05-10T12:05:16;6.73;;;3.60;;
68284;SDS011;55114;52.052;5.238;2023-05-10T12:07:43;7.72;;;3.85;;
68284;SDS011;55114;52.052;5.238;2023-05-10T12:10:11;9.40;;;3.67;;
68284;SDS011;55114;52.052;5.238;2023-05-10T12:12:42;7.25;;;3.55;;
68284;SDS011;55114;52.052;5.238;2023-05-10T12:15:27;7.70;;;4.60;;
68284;SDS011;55114;52.052;5.238;2023-05-10T12:17:54;8.27;;;4.90;;
68284;SDS011;55114;52.052;5.238;2023-05-10T12:20:24;8.75;;;5.57;;
68284;SDS011;55114;52.052;5.238;2023-05-10T12:22:52;8.38;;;5.30;;
68284;SDS011;55114;52.052;5.238;2023-05-10T12:25:20;8.15;;;5.50;;
68284;SDS011;55114;52.052;5.238;2023-05-10T12:27:48;9.30;;;5.28;;
68284;SDS011;55114;52.052;5.238;2023-05-10T12:30:22;8.53;;;5.17;;
68284;SDS011;55114;52.052;5.238;2023-05-10T12:32:49;8.27;;;5.60;;
68284;SDS011;55114;52.052;5.238;2023-05-10T12:35:17;7.47;;;4.70;;
68284;SDS011;55114;52.052;5.238;2023-05-10T12:37:47;7.43;;;4.75;;
68284;SDS011;55114;52.052;5.238;2023-05-10T12:40:15;8.05;;;5.20;;
68284;SDS011;55114;52.052;5.238;2023-05-10T12:42:42;8.37;;;5.30;;
68284;SDS011;55114;52.052;5.238;2023-05-10T12:45:13;8.35;;;5.20;;
68284;SDS011;55114;52.052;5.238;2023-05-10T12:47:40;9.30;;;5.40;;
68284;SDS011;55114;52.052;5.238;2023-05-10T12:50:09;10.20;;;5.90;;
68284;SDS011;55114;52.052;5.238;2023-05-10T12:52:37;9.10;;;5.22;;
68284;SDS011;55114;52.052;5.238;2023-05-10T12:55:04;10.47;;;5.00;;
68284;SDS011;55114;52.052;5.238;2023-05-10T12:57:31;11.15;;;5.32;;
68284;SDS011;55114;52.052;5.238;2023-05-10T12:59:58;11.23;;;5.53;;
68284;SDS011;55114;52.052;5.238;2023-05-10T13:02:25;13.15;;;5.45;;
68284;SDS011;55114;52.052;5.238;2023-05-10T13:04:52;11.88;;;5.68;;
68284;SDS011;55114;52.052;5.238;2023-05-10T13:07:20;12.10;;;5.43;;
68284;SDS011;55114;52.052;5.238;2023-05-10T13:09:47;12.15;;;5.13;;
68284;SDS011;55114;52.052;5.238;2023-05-10T13:12:14;11.90;;;5.22;;
68284;SDS011;55114;52.052;5.238;2023-05-10T13:14:41;12.65;;;5.60;;
68284;SDS011;55114;52.052;5.238;2023-05-10T13:17:08;12.82;;;5.60;;
68284;SDS011;55114;52.052;5.238;2023-05-10T13:19:36;13.00;;;5.93;;
68284;SDS011;55114;52.052;5.238;2023-05-10T13:22:03;13.57;;;5.32;;
68284;SDS011;55114;52.052;5.238;2023-05-10T13:24:30;13.88;;;6.20;;
68284;SDS011;55114;52.052;5.238;2023-05-10T13:26:57;16.80;;;6.28;;
68284;SDS011;55114;52.052;5.238;2023-05-10T13:29:25;12.80;;;6.00;;
68284;SDS011;55114;52.052;5.238;2023-05-10T13:31:52;15.27;;;6.67;;
68284;SDS011;55114;52.052;5.238;2023-05-10T13:34:19;14.63;;;6.45;;
68284;SDS011;55114;52.052;5.238;2023-05-10T13:36:47;15.80;;;6.70;;
68284;SDS011;55114;52.052;5.238;2023-05-10T13:39:15;14.80;;;6.47;;
68284;SDS011;55114;52.052;5.238;2023-05-10T13:41:42;13.13;;;5.75;;
68284;SDS011;55114;52.052;5.238;2023-05-10T13:44:11;12.63;;;5.43;;
68284;SDS011;55114;52.052;5.238;2023-05-10T13:46:38;13.40;;;5.80;;
68284;SDS011;55114;52.052;5.238;2023-05-10T13:49:18;15.38;;;6.65;;
68284;SDS011;55114;52.052;5.238;2023-05-10T13:51:53;15.48;;;7.18;;
68284;SDS011;55114;52.052;5.238;2023-05-10T13:54:21;14.70;;;7.05;;
68284;SDS011;55114;52.052;5.238;2023-05-10T13:56:48;21.03;;;7.10;;
68284;SDS011;55114;52.052;5.238;2023-05-10T13:59:15;16.00;;;7.85;;
68284;SDS011;55114;52.052;5.238;2023-05-10T14:01:42;17.80;;;7.45;;
68284;SDS011;55114;52.052;5.238;2023-05-10T14:04:10;15.60;;;7.15;;
68284;SDS011;55114;52.052;5.238;2023-05-10T14:06:38;14.20;;;6.70;;
68284;SDS011;55114;52.052;5.238;2023-05-10T14:09:05;14.97;;;6.30;;
68284;SDS011;55114;52.052;5.238;2023-05-10T14:11:32;12.48;;;6.00;;
68284;SDS011;55114;52.052;5.238;2023-05-10T14:13:59;13.75;;;6.43;;
68284;SDS011;55114;52.052;5.238;2023-05-10T14:16:27;13.30;;;6.03;;
68284;SDS011;55114;52.052;5.238;2023-05-10T14:18:54;12.27;;;5.55;;
68284;SDS011;55114;52.052;5.238;2023-05-10T14:21:21;14.20;;;5.97;;
68284;SDS011;55114;52.052;5.238;2023-05-10T14:23:49;11.75;;;5.68;;
68284;SDS011;55114;52.052;5.238;2023-05-10T14:26:16;15.88;;;6.20;;
68284;SDS011;55114;52.052;5.238;2023-05-10T14:28:43;14.07;;;6.28;;
68284;SDS011;55114;52.052;5.238;2023-05-10T14:31:10;13.55;;;6.15;;
68284;SDS011;55114;52.052;5.238;2023-05-10T14:33:38;11.57;;;5.53;;
68284;SDS011;55114;52.052;5.238;2023-05-10T14:36:06;11.50;;;5.90;;
68284;SDS011;55114;52.052;5.238;2023-05-10T14:38:33;14.57;;;6.22;;
68284;SDS011;55114;52.052;5.238;2023-05-10T14:41:00;13.18;;;6.32;;
68284;SDS011;55114;52.052;5.238;2023-05-10T14:43:28;12.18;;;5.80;;
68284;SDS011;55114;52.052;5.238;2023-05-10T14:46:04;11.63;;;6.27;;
68284;SDS011;55114;52.052;5.238;2023-05-10T14:48:31;13.02;;;5.65;;
68284;SDS011;55114;52.052;5.238;2023-05-10T14:50:58;11.57;;;5.75;;
68284;SDS011;55114;52.052;5.238;2023-05-10T14:53:26;11.57;;;5.40;;
68284;SDS011;55114;52.052;5.238;2023-05-10T14:55:53;10.77;;;5.28;;
68284;SDS011;55114;52.052;5.238;2023-05-10T14:58:20;11.73;;;5.73;;
68284;SDS011;55114;52.052;5.238;2023-05-10T15:00:47;13.80;;;5.47;;
68284;SDS011;55114;52.052;5.238;2023-05-10T15:03:15;10.77;;;5.38;;
68284;SDS011;55114;52.052;5.238;2023-05-10T15:05:43;10.73;;;5.50;;
68284;SDS011;55114;52.052;5.238;2023-05-10T15:08:10;11.95;;;5.68;;
68284;SDS011;55114;52.052;5.238;2023-05-10T15:10:38;12.30;;;5.83;;
68284;SDS011;55114;52.052;5.238;2023-05-10T15:13:06;12.10;;;5.40;;